Time;durP1;ratioP1;P1;durP2;ratioP2;P2;SDS_P1;SDS_P2;PMS_P1;PMS_P2;Temp;Humidity;BMP_temperature;BMP_pressure;BME280_temperature;BME280_humidity;BME280_pressure;Samples;Min_cycle;Max_cycle;Signal;HPM_P1;HPM_P2
2022/11/20 00:03:56;;;;;;;22.80;13.93;;;0.90;1.00;;;;;;4998545;28;20230;-85
2022/11/20 00:19:27;;;;;;;21.70;13.05;;;1.00;1.00;;;;;;4948667;28;20372;-85
2022/11/20 00:22:15;;;;;;;20.13;13.32;;;1.00;1.00;;;;;;4996716;28;20237;-84
2022/11/20 00:28:06;;;;;;;22.15;12.32;;;0.90;1.00;;;;;;5085291;28;20314;-83
2022/11/20 00:33:55;;;;;;;21.58;12.27;;;0.90;1.00;;;;;;5010311;28;20330;-82
2022/11/20 00:56:26;;;;;;;21.45;12.80;;;0.80;1.00;;;;;;4851194;29;20244;-83
2022/11/20 01:03:17;;;;;;;20.77;12.82;;;0.80;1.00;;;;;;5151668;23;20248;-81
2022/11/20 01:05:45;;;;;;;24.33;13.45;;;0.80;1.00;;;;;;5124303;27;20972;-84
2022/11/20 01:08:58;;;;;;;22.42;12.98;;;0.80;1.00;;;;;;5120601;27;20242;-82
2022/11/20 01:16:10;;;;;;;;;;;;;;;;;;;;;
2022/11/20 01:18:42;;;;;;;20.85;13.35;;;0.90;1.00;;;;;;5087768;27;50604;-84
2022/11/20 01:22:09;;;;;;;21.90;12.88;;;0.80;1.00;;;;;;5111348;27;20250;-83
2022/11/20 01:25:29;;;;;;;25.70;13.85;;;0.80;1.00;;;;;;5113216;27;20262;-84
2022/11/20 01:31:00;;;;;;;21.25;13.40;;;1.00;1.00;;;;;;5115384;28;20258;-84
2022/11/20 01:33:28;;;;;;;22.30;13.15;;;1.00;1.00;;;;;;5118712;27;20231;-84
2022/11/20 01:36:07;;;;;;;23.58;14.43;;;1.00;1.00;;;;;;5114509;27;20377;-84
2022/11/20 01:38:43;;;;;;;22.98;14.43;;;1.00;1.00;;;;;;5131373;27;20292;-83
2022/11/20 01:44:25;;;;;;;23.10;14.02;;;1.00;1.00;;;;;;5093377;27;20226;-84
2022/11/20 01:47:21;;;;;;;22.17;15.18;;;1.10;1.00;;;;;;5097677;27;20281;-85
2022/11/20 01:50:08;;;;;;;20.17;13.32;;;1.00;1.00;;;;;;5113111;27;20228;-85
2022/11/20 01:52:59;;;;;;;20.45;13.57;;;1.10;1.00;;;;;;5108157;27;20229;-84
2022/11/20 01:55:41;;;;;;;22.83;13.98;;;1.10;1.00;;;;;;5111713;27;20235;-83
2022/11/20 01:58:09;;;;;;;21.77;13.00;;;1.10;1.00;;;;;;5120418;27;20239;-82
2022/11/20 02:00:47;;;;;;;22.25;13.65;;;1.00;1.00;;;;;;5126323;27;20241;-81
2022/11/20 02:03:21;;;;;;;23.35;13.45;;;0.90;1.00;;;;;;5140138;27;20233;-85
2022/11/20 02:05:58;;;;;;;22.23;13.93;;;0.90;1.00;;;;;;5105980;27;20550;-85
2022/11/20 02:08:31;;;;;;;23.80;15.15;;;0.90;1.00;;;;;;5100609;27;21032;-85
2022/11/20 02:11:07;;;;;;;23.88;13.85;;;0.90;1.00;;;;;;5127883;27;20243;-83
2022/11/20 02:13:45;;;;;;;22.23;14.38;;;0.90;1.00;;;;;;5114342;27;20281;-82
2022/11/20 02:16:25;;;;;;;20.80;14.05;;;0.90;1.00;;;;;;5119517;27;20231;-83
2022/11/20 02:19:05;;;;;;;21.38;13.05;;;0.90;1.00;;;;;;5140350;27;20237;-84
2022/11/20 02:21:49;;;;;;;25.05;14.30;;;0.80;1.00;;;;;;5138510;27;20239;-83
2022/11/20 02:24:28;;;;;;;19.35;12.80;;;0.80;1.00;;;;;;5132656;27;20227;-84
2022/11/20 02:27:10;;;;;;;22.75;13.07;;;0.90;1.00;;;;;;5139955;27;20260;-84
2022/11/20 02:29:47;;;;;;;24.77;14.38;;;0.90;1.00;;;;;;5128965;27;20236;-81
2022/11/20 02:32:28;;;;;;;24.63;13.88;;;0.70;1.00;;;;;;5139062;27;20290;-84
2022/11/20 02:35:10;;;;;;;24.50;14.85;;;0.60;1.00;;;;;;5116310;27;20246;-84
2022/11/20 02:37:41;;;;;;;24.10;15.23;;;0.60;1.00;;;;;;5128018;27;20246;-82
2022/11/20 02:40:12;;;;;;;27.02;15.15;;;0.60;1.00;;;;;;5112999;27;20246;-82
2022/11/20 02:42:42;;;;;;;22.90;13.63;;;0.60;1.00;;;;;;5138705;27;20223;-84
2022/11/20 02:45:10;;;;;;;26.05;14.75;;;0.70;1.00;;;;;;5130137;27;20344;-81
2022/11/20 02:47:39;;;;;;;22.13;13.80;;;0.70;1.00;;;;;;5136079;27;20224;-82
2022/11/20 02:50:07;;;;;;;22.45;14.25;;;0.70;1.00;;;;;;5142945;27;21008;-81
2022/11/20 02:52:39;;;;;;;23.08;14.27;;;0.70;1.00;;;;;;5138055;27;20231;-84
2022/11/20 02:55:09;;;;;;;24.10;14.70;;;0.70;1.00;;;;;;5135820;27;20257;-83
2022/11/20 02:57:40;;;;;;;23.13;14.80;;;0.70;1.00;;;;;;5139922;27;20253;-83
2022/11/20 03:00:09;;;;;;;23.88;13.95;;;0.70;1.00;;;;;;5137500;27;20291;-85
2022/11/20 03:02:39;;;;;;;23.48;14.10;;;0.70;1.00;;;;;;5121263;27;20214;-81
2022/11/20 03:05:06;;;;;;;20.98;14.15;;;0.70;1.00;;;;;;5087403;28;20243;-84
2022/11/20 03:07:34;;;;;;;21.13;13.25;;;0.70;1.00;;;;;;5099722;28;20233;-83
2022/11/20 03:10:05;;;;;;;21.60;13.73;;;0.80;1.00;;;;;;5097769;28;20235;-82
2022/11/20 03:12:46;;;;;;;23.20;13.57;;;0.80;1.00;;;;;;5100086;28;20346;-84
2022/11/20 03:15:18;;;;;;;22.63;13.07;;;0.80;1.00;;;;;;5108782;27;20236;-83
2022/11/20 03:17:45;;;;;;;22.05;13.60;;;0.80;1.00;;;;;;5115151;27;20266;-83
2022/11/20 03:20:12;;;;;;;23.17;13.43;;;0.70;1.00;;;;;;5118410;28;21081;-83
2022/11/20 03:22:42;;;;;;;29.90;20.63;;;0.70;1.00;;;;;;5101590;27;20225;-83
2022/11/20 03:25:09;;;;;;;20.60;13.85;;;0.70;1.00;;;;;;5108483;27;20238;-83
2022/11/20 03:27:41;;;;;;;25.02;14.07;;;0.60;1.00;;;;;;5107629;27;20256;-85
2022/11/20 03:30:09;;;;;;;24.15;13.57;;;0.60;1.00;;;;;;5103846;27;20710;-80
2022/11/20 03:32:39;;;;;;;20.52;13.80;;;0.60;1.00;;;;;;5119743;27;20228;-85
2022/11/20 03:35:07;;;;;;;22.42;13.45;;;0.60;1.00;;;;;;5109603;27;20231;-83
2022/11/20 03:37:39;;;;;;;21.58;13.15;;;0.60;1.00;;;;;;5114937;27;20243;-81
2022/11/20 03:40:10;;;;;;;26.95;14.32;;;0.60;1.00;;;;;;5105930;27;20231;-82
2022/11/20 03:42:50;;;;;;;23.13;13.82;;;0.60;1.00;;;;;;5117462;27;20245;-81
2022/11/20 03:45:21;;;;;;;24.70;13.95;;;0.60;1.00;;;;;;5113613;27;20535;-83
2022/11/20 03:47:48;;;;;;;22.13;14.05;;;0.60;1.00;;;;;;5100719;27;22579;-85
2022/11/20 03:50:19;;;;;;;19.95;13.38;;;0.60;1.00;;;;;;5121936;27;20232;-85
2022/11/20 03:52:46;;;;;;;24.45;13.65;;;0.60;1.00;;;;;;5110738;27;20269;-82
2022/11/20 03:55:19;;;;;;;20.20;13.27;;;0.70;1.00;;;;;;5109324;27;20274;-85
2022/11/20 03:57:47;;;;;;;21.50;14.50;;;0.70;1.00;;;;;;5113113;28;20294;-81
2022/11/20 04:00:19;;;;;;;22.63;14.60;;;0.70;1.00;;;;;;5097587;28;20244;-84
2022/11/20 04:02:46;;;;;;;24.73;14.52;;;0.60;1.00;;;;;;5123792;27;20270;-83
2022/11/20 04:05:18;;;;;;;22.90;14.40;;;0.70;1.00;;;;;;5136142;27;20637;-82
2022/11/20 04:07:45;;;;;;;24.02;14.90;;;0.70;1.00;;;;;;5141690;27;20999;-84
2022/11/20 04:10:12;;;;;;;25.85;14.82;;;0.70;1.00;;;;;;5141301;27;20234;-82
2022/11/20 04:12:39;;;;;;;24.27;14.88;;;0.70;1.00;;;;;;5140942;27;20506;-84
2022/11/20 04:15:09;;;;;;;23.05;14.27;;;0.70;1.00;;;;;;5139035;27;21463;-80
2022/11/20 04:17:39;;;;;;;21.33;14.05;;;0.70;1.00;;;;;;5141079;27;20262;-84
2022/11/20 04:20:08;;;;;;;23.02;13.63;;;0.60;1.00;;;;;;5136830;27;20235;-84
2022/11/20 04:22:39;;;;;;;22.70;15.15;;;0.60;1.00;;;;;;5137377;27;20223;-80
2022/11/20 04:25:07;;;;;;;23.13;14.30;;;0.60;1.00;;;;;;5136177;27;20290;-82
2022/11/20 04:27:38;;;;;;;22.70;13.27;;;0.50;1.00;;;;;;5138986;27;20239;-82
2022/11/20 04:30:06;;;;;;;24.20;13.25;;;0.50;1.00;;;;;;5134045;27;20235;-86
2022/11/20 04:32:39;;;;;;;20.48;13.18;;;0.50;1.00;;;;;;5139136;27;20234;-84
2022/11/20 04:35:08;;;;;;;20.23;13.27;;;0.50;1.00;;;;;;5139045;27;20260;-80
2022/11/20 04:37:44;;;;;;;27.27;14.70;;;0.40;1.00;;;;;;5140544;27;20432;-83
2022/11/20 04:40:12;;;;;;;22.50;14.60;;;0.50;1.00;;;;;;5137214;27;20230;-81
2022/11/20 04:42:40;;;;;;;21.83;12.63;;;0.50;1.00;;;;;;5138742;27;20226;-82
2022/11/20 04:45:07;;;;;;;23.75;13.25;;;0.50;1.00;;;;;;5137925;27;20230;-86
2022/11/20 04:47:39;;;;;;;25.83;14.93;;;0.50;1.00;;;;;;5138108;27;20321;-82
2022/11/20 04:50:07;;;;;;;22.58;14.32;;;0.60;1.00;;;;;;5138689;27;20277;-81
2022/11/20 04:52:46;;;;;;;23.55;14.20;;;0.50;1.00;;;;;;5138358;27;20690;-82
2022/11/20 04:55:18;;;;;;;22.20;13.90;;;0.50;1.00;;;;;;5145630;27;20296;-85
2022/11/20 04:57:45;;;;;;;24.92;14.60;;;0.50;1.00;;;;;;5146877;27;20717;-83
2022/11/20 05:00:19;;;;;;;23.23;14.82;;;0.40;1.00;;;;;;5138110;27;20234;-81
2022/11/20 05:02:47;;;;;;;22.65;13.38;;;0.30;1.00;;;;;;5130012;27;21113;-83
2022/11/20 05:05:19;;;;;;;22.63;13.63;;;0.40;1.00;;;;;;5126525;27;20231;-84
2022/11/20 05:07:48;;;;;;;23.50;14.80;;;0.40;1.00;;;;;;5119482;27;20894;-81
2022/11/20 05:10:21;;;;;;;24.65;15.38;;;0.40;1.00;;;;;;5120622;27;20239;-81
2022/11/20 05:12:49;;;;;;;22.10;14.23;;;0.40;1.00;;;;;;5113108;27;20224;-83
2022/11/20 05:15:19;;;;;;;27.33;13.40;;;0.40;1.00;;;;;;5096579;28;20219;-82
2022/11/20 05:17:50;;;;;;;22.63;14.52;;;0.50;1.00;;;;;;5099407;27;21850;-81
2022/11/20 05:20:21;;;;;;;24.20;15.13;;;0.50;1.00;;;;;;5096772;28;20331;-82
2022/11/20 05:22:48;;;;;;;22.85;13.38;;;0.60;1.00;;;;;;5094212;27;20723;-83
2022/11/20 05:25:19;;;;;;;22.63;14.50;;;0.60;1.00;;;;;;5097770;28;20239;-81
2022/11/20 05:27:46;;;;;;;26.48;14.43;;;0.70;1.00;;;;;;5096206;28;20267;-81
2022/11/20 05:30:19;;;;;;;22.60;14.63;;;0.70;1.00;;;;;;5099364;28;20231;-83
2022/11/20 05:32:49;;;;;;;21.40;14.13;;;0.70;1.00;;;;;;5091961;28;20239;-80
2022/11/20 05:35:58;;;;;;;25.17;14.70;;;0.70;1.00;;;;;;5058315;27;20247;-79
2022/11/20 05:38:31;;;;;;;22.55;13.35;;;0.70;1.00;;;;;;5060606;27;20332;-80
2022/11/20 05:41:10;;;;;;;25.17;16.15;;;0.70;1.00;;;;;;5056748;28;20268;-81
2022/11/20 05:43:42;;;;;;;25.52;15.60;;;0.70;1.00;;;;;;5045051;28;20241;-81
2022/11/20 05:46:12;;;;;;;24.30;14.85;;;0.80;1.00;;;;;;5046289;28;20268;-81
2022/11/20 05:48:49;;;;;;;21.63;14.55;;;0.70;1.00;;;;;;5086332;27;20232;-81
2022/11/20 05:51:21;;;;;;;24.20;14.65;;;0.80;1.00;;;;;;5081421;27;20975;-80
2022/11/20 05:53:50;;;;;;;23.92;15.45;;;0.80;1.00;;;;;;5075693;27;20237;-80
2022/11/20 05:56:21;;;;;;;23.27;14.10;;;0.80;1.00;;;;;;5083392;27;20343;-80
2022/11/20 05:58:53;;;;;;;22.88;14.60;;;0.90;1.00;;;;;;5074277;28;20424;-80
2022/11/20 06:01:23;;;;;;;20.80;13.45;;;0.90;1.00;;;;;;5084790;27;20246;-81
2022/11/20 06:03:51;;;;;;;22.73;14.05;;;0.90;1.00;;;;;;5103621;27;20243;-82
2022/11/20 06:06:22;;;;;;;26.15;15.80;;;1.00;1.00;;;;;;5113454;27;20242;-82
2022/11/20 06:08:58;;;;;;;25.38;14.50;;;0.90;1.00;;;;;;5118519;27;20241;-82
2022/11/20 06:11:26;;;;;;;21.67;13.82;;;0.90;1.00;;;;;;5114777;27;20278;-83
2022/11/20 06:13:53;;;;;;;21.67;14.15;;;0.90;1.00;;;;;;5115897;28;20244;-81
2022/11/20 06:16:21;;;;;;;23.50;14.95;;;0.80;1.00;;;;;;5104511;27;20221;-82
2022/11/20 06:18:48;;;;;;;20.40;13.52;;;0.90;1.00;;;;;;5106420;28;20236;-81
2022/11/20 06:21:22;;;;;;;23.85;15.32;;;0.90;1.00;;;;;;5115714;27;20235;-81
2022/11/20 06:23:50;;;;;;;23.20;14.32;;;0.90;1.00;;;;;;5115642;27;20330;-83
2022/11/20 06:26:21;;;;;;;21.15;14.15;;;0.90;1.00;;;;;;5117707;27;20213;-82
2022/11/20 06:28:49;;;;;;;23.13;14.98;;;0.90;1.00;;;;;;5117379;27;20263;-82
2022/11/20 06:31:21;;;;;;;24.73;15.40;;;0.80;1.00;;;;;;5119123;28;20244;-82
2022/11/20 06:33:49;;;;;;;22.27;15.25;;;0.80;1.00;;;;;;5115875;27;20266;-80
2022/11/20 06:36:23;;;;;;;25.00;15.77;;;0.80;1.00;;;;;;5124320;27;20204;-81
2022/11/20 06:38:50;;;;;;;23.13;15.63;;;0.70;1.00;;;;;;5117821;27;21159;-84
2022/11/20 06:41:22;;;;;;;21.80;13.95;;;0.70;1.00;;;;;;5114607;27;20303;-82
2022/11/20 06:43:49;;;;;;;22.83;14.43;;;0.70;1.00;;;;;;5098905;28;20235;-80
2022/11/20 06:46:20;;;;;;;24.27;15.45;;;0.70;1.00;;;;;;5107337;27;20208;-83
2022/11/20 06:48:48;;;;;;;22.02;14.02;;;0.70;1.00;;;;;;5118507;28;20318;-83
2022/11/20 06:51:18;;;;;;;21.88;14.20;;;0.70;1.00;;;;;;5115751;28;20261;-80
2022/11/20 06:53:47;;;;;;;24.60;15.98;;;0.70;1.00;;;;;;5119716;27;20300;-84
2022/11/20 06:56:18;;;;;;;23.17;14.48;;;0.70;1.00;;;;;;5107367;27;20235;-82
2022/11/20 06:58:46;;;;;;;21.13;13.57;;;0.70;1.00;;;;;;5117444;27;20235;-84
2022/11/20 07:01:19;;;;;;;21.85;14.07;;;0.80;1.00;;;;;;5111976;27;20242;-85
2022/11/20 07:03:49;;;;;;;28.15;17.08;;;0.80;1.00;;;;;;5121039;27;20233;-83
2022/11/20 07:06:21;;;;;;;26.85;16.95;;;0.80;1.00;;;;;;5109848;27;20215;-83
2022/11/20 07:08:51;;;;;;;24.30;15.95;;;0.80;1.00;;;;;;5115153;27;20242;-82
2022/11/20 07:11:22;;;;;;;22.40;14.13;;;1.00;1.00;;;;;;5117400;27;20236;-82
2022/11/20 07:13:49;;;;;;;22.98;14.43;;;1.00;1.00;;;;;;5113747;27;21108;-82
2022/11/20 07:16:24;;;;;;;20.17;13.70;;;1.00;1.00;;;;;;5121521;27;21113;-84
2022/11/20 07:18:52;;;;;;;23.00;14.30;;;1.00;1.00;;;;;;5107360;27;21070;-81
2022/11/20 07:21:23;;;;;;;23.58;15.52;;;1.00;1.00;;;;;;5099289;27;20243;-83
2022/11/20 07:23:52;;;;;;;22.85;15.68;;;1.00;1.00;;;;;;5101633;27;20590;-81
2022/11/20 07:26:21;;;;;;;23.58;15.20;;;0.90;1.00;;;;;;5094724;28;20228;-82
2022/11/20 07:28:48;;;;;;;26.30;17.40;;;1.00;1.00;;;;;;5110689;27;20995;-83
2022/11/20 07:31:27;;;;;;;23.23;15.70;;;0.90;1.00;;;;;;5120543;27;20276;-84
2022/11/20 07:33:56;;;;;;;22.98;14.30;;;0.90;1.00;;;;;;5103635;28;20228;-81
2022/11/20 07:36:23;;;;;;;22.30;14.65;;;0.90;1.00;;;;;;5095310;27;20224;-85
2022/11/20 07:38:52;;;;;;;24.98;15.60;;;0.90;1.00;;;;;;5108209;27;20710;-82
2022/11/20 07:41:23;;;;;;;24.25;14.98;;;0.90;1.00;;;;;;5096556;28;20234;-85
2022/11/20 07:43:53;;;;;;;24.58;14.93;;;1.00;1.00;;;;;;5103940;27;22842;-84
2022/11/20 07:46:20;;;;;;;22.15;14.25;;;1.00;1.00;;;;;;5095702;27;21021;-83
2022/11/20 07:48:47;;;;;;;24.73;15.48;;;0.90;1.00;;;;;;5093805;28;20297;-83
2022/11/20 07:51:18;;;;;;;23.45;15.52;;;0.90;1.00;;;;;;5101871;27;20239;-81
2022/11/20 07:53:45;;;;;;;22.98;16.05;;;0.90;1.00;;;;;;5094663;28;20243;-81
2022/11/20 07:56:16;;;;;;;21.30;14.77;;;0.90;1.00;;;;;;5098711;27;20233;-81
2022/11/20 07:58:45;;;;;;;23.33;15.60;;;0.80;1.00;;;;;;5110536;27;20345;-84
2022/11/20 08:01:12;;;;;;;25.02;16.55;;;0.90;1.00;;;;;;5108397;27;21081;-84
2022/11/20 08:03:40;;;;;;;23.20;15.38;;;0.90;1.00;;;;;;5113016;27;20241;-83
2022/11/20 08:06:08;;;;;;;22.40;14.68;;;0.80;1.00;;;;;;5119068;27;21236;-80
2022/11/20 08:08:40;;;;;;;25.08;15.88;;;0.80;1.00;;;;;;5122394;27;20235;-83
2022/11/20 08:16:40;;;;;;;23.80;14.80;;;0.80;1.00;;;;;;5113211;27;20232;-83
2022/11/20 08:19:08;;;;;;;25.25;14.55;;;0.80;1.00;;;;;;5122570;27;20234;-81
2022/11/20 08:21:40;;;;;;;24.05;14.75;;;0.90;1.00;;;;;;5135436;27;20230;-84
2022/11/20 08:24:08;;;;;;;24.00;15.32;;;1.00;1.00;;;;;;5122035;27;20314;-82
2022/11/20 08:26:43;;;;;;;28.33;15.85;;;1.10;1.00;;;;;;5117082;27;20238;-84
2022/11/20 08:29:12;;;;;;;22.17;13.95;;;1.10;1.00;;;;;;5111628;27;20243;-83
2022/11/20 08:31:40;;;;;;;24.25;15.07;;;1.10;1.00;;;;;;5122564;27;20228;-83
2022/11/20 08:34:08;;;;;;;25.75;16.17;;;1.00;1.00;;;;;;5123165;27;20769;-84
2022/11/20 08:36:41;;;;;;;24.45;15.30;;;1.20;1.00;;;;;;5116083;27;20986;-84
2022/11/20 08:39:13;;;;;;;22.98;14.52;;;1.30;1.00;;;;;;5124283;27;20207;-82
2022/11/20 08:41:40;;;;;;;23.40;15.32;;;1.20;1.00;;;;;;5136399;27;20599;-81
2022/11/20 08:44:11;;;;;;;26.73;17.17;;;1.20;1.00;;;;;;5127603;27;20219;-81
2022/11/20 08:46:40;;;;;;;24.63;16.40;;;1.20;1.00;;;;;;5132658;27;20269;-83
2022/11/20 08:49:13;;;;;;;22.10;15.02;;;1.10;1.00;;;;;;5117743;27;20240;-81
2022/11/20 08:51:42;;;;;;;25.20;18.20;;;1.10;1.00;;;;;;5128585;27;20277;-81
2022/11/20 08:54:10;;;;;;;26.25;16.83;;;1.10;1.00;;;;;;5115294;27;20215;-80
2022/11/20 08:56:37;;;;;;;24.17;14.40;;;1.20;1.00;;;;;;5130553;27;20247;-81
2022/11/20 08:59:09;;;;;;;30.08;17.50;;;1.20;1.00;;;;;;5110267;27;20243;-80
2022/11/20 09:01:40;;;;;;;27.92;16.05;;;1.30;1.00;;;;;;5131053;27;20255;-79
2022/11/20 09:04:11;;;;;;;24.92;16.60;;;1.40;1.00;;;;;;5123362;27;20215;-80
2022/11/20 09:06:38;;;;;;;27.13;16.10;;;1.40;1.00;;;;;;5127169;27;20224;-81
2022/11/20 09:09:10;;;;;;;30.25;17.30;;;1.40;1.00;;;;;;5122512;27;20240;-82
2022/11/20 09:11:38;;;;;;;28.27;16.45;;;1.40;1.00;;;;;;5132418;27;20237;-81
2022/11/20 09:14:11;;;;;;;25.10;15.82;;;1.40;1.00;;;;;;5141247;27;20236;-80
2022/11/20 09:16:39;;;;;;;21.88;14.38;;;1.40;1.00;;;;;;5149434;27;20219;-84
2022/11/20 09:19:11;;;;;;;23.42;15.45;;;1.40;1.00;;;;;;5145614;27;20257;-82
2022/11/20 09:21:38;;;;;;;26.02;16.70;;;1.30;1.00;;;;;;5146768;27;20239;-83
2022/11/20 09:24:11;;;;;;;26.17;16.00;;;1.40;1.00;;;;;;5142917;27;20234;-82
2022/11/20 09:26:38;;;;;;;25.40;15.57;;;1.40;1.00;;;;;;5126256;28;20235;-82
2022/11/20 09:29:13;;;;;;;23.02;15.43;;;1.40;1.00;;;;;;5118341;27;20324;-81
2022/11/20 09:31:43;;;;;;;24.95;14.95;;;1.40;1.00;;;;;;5139744;27;20236;-83
2022/11/20 09:34:12;;;;;;;25.63;16.15;;;1.50;1.00;;;;;;5125875;27;20251;-81
2022/11/20 09:36:41;;;;;;;21.52;15.45;;;1.40;1.00;;;;;;5117422;27;20235;-82
2022/11/20 09:39:10;;;;;;;26.75;15.43;;;1.50;1.00;;;;;;5115646;27;20228;-81
2022/11/20 09:42:16;;;;;;;25.60;17.70;;;1.50;1.00;;;;;;5125548;27;20957;-81
2022/11/20 09:45:11;;;;;;;27.88;17.80;;;1.50;1.00;;;;;;5128586;27;20292;-81
2022/11/20 09:47:51;;;;;;;25.27;16.40;;;1.50;1.00;;;;;;5127176;27;20241;-81
2022/11/20 09:50:33;;;;;;;22.38;14.55;;;1.50;1.00;;;;;;5129788;27;20239;-80
2022/11/20 09:53:17;;;;;;;26.42;15.73;;;1.40;1.00;;;;;;5134716;27;20235;-82
2022/11/20 09:55:45;;;;;;;23.80;15.95;;;1.30;1.00;;;;;;5111654;27;20305;-80
2022/11/20 09:58:20;;;;;;;27.27;16.23;;;1.40;1.00;;;;;;5113162;27;20265;-81
2022/11/20 10:00:52;;;;;;;23.38;15.48;;;1.40;1.00;;;;;;5111603;27;20675;-83
2022/11/20 10:03:37;;;;;;;24.33;16.35;;;1.50;1.00;;;;;;5091394;27;21462;-81
2022/11/20 10:06:07;;;;;;;21.25;15.25;;;1.50;1.00;;;;;;5082993;28;20332;-81
2022/11/20 10:08:42;;;;;;;21.67;15.80;;;1.50;1.00;;;;;;5094047;27;20236;-83
2022/11/20 10:11:17;;;;;;;22.65;14.20;;;1.50;1.00;;;;;;5112440;27;20235;-80
2022/11/20 10:13:59;;;;;;;25.30;16.13;;;1.50;1.00;;;;;;5110840;27;20231;-82
2022/11/20 10:16:36;;;;;;;27.33;16.55;;;1.60;1.00;;;;;;5108438;27;20231;-82
2022/11/20 10:19:18;;;;;;;24.80;15.55;;;1.60;1.00;;;;;;5114722;27;20231;-80
2022/11/20 10:21:57;;;;;;;23.77;16.15;;;1.70;1.00;;;;;;5100609;27;20231;-81
2022/11/20 10:24:47;;;;;;;23.50;15.68;;;1.50;1.00;;;;;;5091010;28;20324;-86
2022/11/20 10:27:50;;;;;;;21.55;15.38;;;1.50;1.00;;;;;;5088569;27;20239;-80
2022/11/20 10:30:24;;;;;;;22.83;14.73;;;1.60;1.00;;;;;;5087356;28;20267;-83
2022/11/20 10:32:59;;;;;;;23.30;14.98;;;1.60;1.00;;;;;;5094026;28;20232;-78
2022/11/20 10:35:34;;;;;;;21.67;15.55;;;1.70;1.00;;;;;;5098710;28;20334;-78
2022/11/20 10:38:09;;;;;;;24.17;15.07;;;1.70;1.00;;;;;;5101922;27;20329;-77
2022/11/20 10:40:42;;;;;;;24.55;14.98;;;1.60;1.00;;;;;;5102198;27;20235;-77
2022/11/20 10:43:15;;;;;;;23.05;14.50;;;1.60;1.00;;;;;;5122067;27;20250;-79
2022/11/20 10:45:55;;;;;;;21.15;15.38;;;1.60;1.00;;;;;;5110511;27;20975;-81
2022/11/20 10:48:25;;;;;;;25.55;16.42;;;1.60;1.00;;;;;;5098772;28;20239;-78
2022/11/20 10:51:19;;;;;;;22.20;15.88;;;1.60;1.00;;;;;;5119460;27;20231;-80
2022/11/20 10:53:55;;;;;;;22.77;14.88;;;1.70;1.00;;;;;;5120878;27;20249;-80
2022/11/20 10:56:32;;;;;;;23.05;15.57;;;1.80;1.00;;;;;;5102651;27;20329;-78
2022/11/20 10:59:43;;;;;;;24.88;17.35;;;1.90;1.00;;;;;;5117529;27;20330;-77
2022/11/20 11:02:23;;;;;;;24.05;16.55;;;2.00;1.00;;;;;;5080563;27;20272;-77
2022/11/20 11:04:52;;;;;;;31.08;19.80;;;2.20;1.00;;;;;;5133116;27;20240;-78
2022/11/20 11:07:27;;;;;;;22.33;15.30;;;2.30;1.00;;;;;;5137547;27;20292;-79
2022/11/20 11:09:57;;;;;;;28.45;17.42;;;2.40;1.00;;;;;;5138989;27;20231;-78
2022/11/20 11:12:31;;;;;;;25.55;15.48;;;2.40;1.00;;;;;;5138318;27;20227;-79
2022/11/20 11:14:59;;;;;;;23.88;16.02;;;2.50;1.00;;;;;;5135717;27;20308;-80
2022/11/20 11:17:32;;;;;;;23.63;16.00;;;2.70;1.00;;;;;;5139401;27;20235;-80
2022/11/20 11:20:17;;;;;;;25.17;16.48;;;3.40;1.00;;;;;;5134134;27;20243;-80
2022/11/20 11:22:50;;;;;;;22.88;15.43;;;3.80;1.00;;;;;;5139459;27;20232;-79
2022/11/20 11:25:33;;;;;;;20.65;15.23;;;3.70;1.00;;;;;;5141480;27;21049;-81
2022/11/20 11:28:04;;;;;;;20.55;14.05;;;3.50;1.00;;;;;;5140141;27;20239;-81
2022/11/20 11:30:42;;;;;;;20.48;13.88;;;3.60;1.00;;;;;;5117908;27;20230;-79
2022/11/20 11:33:20;;;;;;;24.90;15.63;;;3.70;1.00;;;;;;5121760;27;20203;-81
2022/11/20 11:35:53;;;;;;;26.38;13.27;;;3.60;1.00;;;;;;5140467;27;20227;-81
2022/11/20 11:38:31;;;;;;;19.50;13.93;;;3.60;1.00;;;;;;5136842;27;20325;-80
2022/11/20 11:40:59;;;;;;;21.15;15.63;;;3.50;1.00;;;;;;5138875;27;20308;-81
2022/11/20 11:46:32;;;;;;;19.83;13.70;;;3.20;1.00;;;;;;5138212;27;20227;-82
2022/11/20 11:49:02;;;;;;;21.50;13.27;;;3.20;1.00;;;;;;5138666;27;20227;-78
2022/11/20 11:51:36;;;;;;;24.85;14.30;;;3.10;1.00;;;;;;5134624;27;20278;-81
2022/11/20 11:54:15;;;;;;;20.27;13.00;;;3.10;1.00;;;;;;5136240;27;20314;-81
2022/11/20 11:56:42;;;;;;;19.15;13.25;;;3.00;1.00;;;;;;5136990;27;20238;-79
2022/11/20 11:59:19;;;;;;;19.52;12.43;;;2.90;1.00;;;;;;5139169;27;20352;-80
2022/11/20 12:01:54;;;;;;;20.17;13.68;;;2.80;1.00;;;;;;5134920;27;20257;-81
2022/11/20 12:04:37;;;;;;;21.45;14.05;;;2.60;1.00;;;;;;5115830;27;20340;-79
2022/11/20 12:07:12;;;;;;;21.00;13.23;;;2.60;1.00;;;;;;5100649;28;20279;-84
2022/11/20 12:09:50;;;;;;;24.58;13.40;;;2.60;1.00;;;;;;5104668;27;20252;-83
2022/11/20 12:12:21;;;;;;;21.23;14.82;;;2.60;1.00;;;;;;5101590;28;20219;-82
2022/11/20 12:14:56;;;;;;;20.33;13.80;;;2.60;1.00;;;;;;5116759;27;20234;-81
2022/11/20 12:17:32;;;;;;;22.00;14.50;;;2.60;1.00;;;;;;5120216;27;21024;-80
2022/11/20 12:19:59;;;;;;;20.45;14.05;;;2.50;1.00;;;;;;5118251;27;20264;-82
2022/11/20 12:22:35;;;;;;;18.75;12.95;;;2.50;1.00;;;;;;5127321;27;20256;-81
2022/11/20 12:25:11;;;;;;;20.35;13.55;;;2.50;1.00;;;;;;5123423;28;20236;-81
2022/11/20 12:28:16;;;;;;;22.20;14.15;;;2.40;1.00;;;;;;5107785;28;20238;-80
2022/11/20 12:30:57;;;;;;;21.63;14.38;;;2.50;1.00;;;;;;5123223;27;20243;-82
2022/11/20 12:34:10;;;;;;;20.65;13.68;;;2.60;1.00;;;;;;5129016;27;20231;-77
2022/11/20 12:36:49;;;;;;;22.65;14.52;;;2.70;1.00;;;;;;5123952;27;20230;-79
2022/11/20 12:39:31;;;;;;;20.65;13.40;;;2.70;1.00;;;;;;5111061;28;20685;-82
2022/11/20 12:46:13;;;;;;;20.35;12.85;;;2.80;1.00;;;;;;5121037;27;20223;-81
2022/11/20 12:51:55;;;;;;;18.45;12.25;;;2.80;1.00;;;;;;3350154;25;20240;-80
2022/11/20 12:55:10;;;;;;;18.25;12.40;;;2.90;1.00;;;;;;5157146;27;20252;-81
2022/11/20 12:57:54;;;;;;;17.98;11.60;;;3.00;1.00;;;;;;5164566;27;20323;-81
2022/11/20 13:00:24;;;;;;;19.02;12.25;;;3.00;1.00;;;;;;5164935;27;20276;-83
2022/11/20 13:03:27;;;;;;;18.90;11.45;;;3.00;1.00;;;;;;5163254;27;20243;-81
2022/11/20 13:06:06;;;;;;;19.55;10.52;;;3.00;1.00;;;;;;5152652;27;20232;-81
2022/11/20 13:11:24;;;;;;;16.52;9.95;;;2.80;1.00;;;;;;5164429;27;20287;-81
2022/11/20 13:14:20;;;;;;;17.98;11.00;;;2.70;1.00;;;;;;5158902;27;20238;-81
2022/11/20 13:16:53;;;;;;;17.23;11.15;;;2.60;1.00;;;;;;5162521;27;20262;-80
2022/11/20 13:19:23;;;;;;;17.98;10.60;;;2.50;1.00;;;;;;5166209;27;20234;-81
2022/11/20 13:21:51;;;;;;;17.08;10.45;;;2.40;1.00;;;;;;5166757;27;20235;-84
2022/11/20 13:24:29;;;;;;;15.77;8.48;;;2.40;1.00;;;;;;5168048;27;20220;-84
2022/11/20 13:27:06;;;;;;;14.10;8.48;;;2.40;1.00;;;;;;5158934;27;20267;-81
2022/11/20 13:29:35;;;;;;;18.08;9.15;;;2.50;1.00;;;;;;5156795;27;20230;-82
2022/11/20 13:32:06;;;;;;;19.55;11.00;;;2.70;1.00;;;;;;5157944;27;20258;-83
2022/11/20 13:34:41;;;;;;;14.10;7.93;;;3.00;1.00;;;;;;5155021;27;20236;-81
2022/11/20 13:37:29;;;;;;;14.20;8.95;;;3.00;1.00;;;;;;5159844;27;20240;-80
2022/11/20 13:40:12;;;;;;;13.40;7.93;;;3.10;1.00;;;;;;5163545;27;20228;-82
2022/11/20 13:42:45;;;;;;;20.85;12.02;;;3.00;1.00;;;;;;5160153;27;20213;-78
2022/11/20 13:45:23;;;;;;;15.38;8.95;;;3.00;1.00;;;;;;5153006;27;20240;-81
2022/11/20 13:47:53;;;;;;;14.90;8.43;;;3.00;1.00;;;;;;5160805;27;20261;-80
2022/11/20 13:50:22;;;;;;;13.85;8.00;;;2.90;1.00;;;;;;5145100;27;20256;-82
2022/11/20 13:53:01;;;;;;;15.93;9.80;;;2.90;1.00;;;;;;5135330;27;20227;-78
2022/11/20 13:55:37;;;;;;;14.60;8.55;;;3.00;1.00;;;;;;5134697;27;20234;-81
2022/11/20 13:58:28;;;;;;;15.10;9.32;;;3.00;1.00;;;;;;5132210;27;20234;-81
2022/11/20 14:01:01;;;;;;;15.95;9.82;;;3.10;1.00;;;;;;5134818;27;20226;-84
2022/11/20 14:03:31;;;;;;;14.38;8.90;;;3.10;1.00;;;;;;5131567;27;20237;-81
2022/11/20 14:06:03;;;;;;;14.45;8.60;;;3.00;1.00;;;;;;5131713;27;20291;-81
2022/11/20 14:08:41;;;;;;;13.35;7.97;;;2.90;1.00;;;;;;5134747;27;20322;-82
2022/11/20 14:11:15;;;;;;;16.85;9.45;;;2.90;1.00;;;;;;5137700;27;20301;-80
2022/11/20 14:14:02;;;;;;;14.48;7.55;;;2.80;1.00;;;;;;5136698;27;20235;-81
2022/11/20 14:16:42;;;;;;;13.18;7.80;;;2.80;1.00;;;;;;5146754;27;20247;-82
2022/11/20 14:19:33;;;;;;;14.15;8.02;;;2.60;1.00;;;;;;5142458;27;20246;-81
2022/11/20 14:22:22;;;;;;;17.63;7.95;;;2.60;1.00;;;;;;5139687;27;20254;-81
2022/11/20 14:25:05;;;;;;;15.95;9.13;;;2.50;1.00;;;;;;5126972;27;20235;-77
2022/11/20 14:27:41;;;;;;;15.27;8.07;;;2.50;1.00;;;;;;5133336;27;20226;-80
2022/11/20 14:30:20;;;;;;;16.77;9.38;;;2.50;1.00;;;;;;5137040;27;20235;-80
2022/11/20 14:32:50;;;;;;;18.00;9.40;;;2.60;1.00;;;;;;5145352;27;20348;-82
2022/11/20 14:35:27;;;;;;;15.02;8.18;;;2.60;1.00;;;;;;5140207;27;20236;-83
2022/11/20 14:37:55;;;;;;;15.80;8.68;;;2.70;1.00;;;;;;5145914;27;20304;-81
2022/11/20 14:40:31;;;;;;;18.80;9.32;;;2.70;1.00;;;;;;5141849;27;20239;-79